createdAt,value
2019-02-14T00:02:04.058Z,102832.18
2019-02-14T00:07:08.089Z,102833.58
2019-02-14T00:12:12.110Z,102840.23
2019-02-14T00:17:16.408Z,102841.33
2019-02-14T00:22:20.429Z,102838.02
2019-02-14T00:27:30.447Z,102845.17
2019-02-14T00:32:34.491Z,102845.55
2019-02-14T00:37:38.519Z,102850.65
2019-02-14T00:42:42.541Z,102852.88
2019-02-14T00:47:46.560Z,102855.20
2019-02-14T00:52:50.596Z,102857.63
2019-02-14T00:57:54.629Z,102862.42
2019-02-14T01:02:58.664Z,102854.28
2019-02-14T01:08:02.687Z,102859.47
2019-02-14T01:13:06.707Z,102858.42
2019-02-14T01:18:10.727Z,102850.65
2019-02-14T01:23:14.754Z,102854.08
2019-02-14T01:28:18.758Z,102848.69
2019-02-14T01:33:22.775Z,102850.52
2019-02-14T01:38:26.806Z,102849.05
2019-02-14T01:43:30.861Z,102845.13
2019-02-14T01:48:34.860Z,102835.58
2019-02-14T01:53:38.884Z,102836.86
2019-02-14T01:58:42.891Z,102834.19
2019-02-14T02:03:46.885Z,102838.04
2019-02-14T02:08:50.894Z,102836.03
2019-02-14T02:13:54.915Z,102839.81
2019-02-14T02:18:58.926Z,102838.75
2019-02-14T02:24:02.929Z,102849.11
2019-02-14T02:29:06.936Z,102852.20
2019-02-14T02:34:10.954Z,102856.20
2019-02-14T02:39:14.978Z,102853.60
2019-02-14T02:44:27.536Z,102855.77
2019-02-14T02:49:42.667Z,102861.02
2019-02-14T02:54:46.805Z,102853.64
2019-02-14T02:59:50.816Z,102864.50
2019-02-14T03:04:55.017Z,102872.23
2019-02-14T03:09:59.104Z,102872.69
2019-02-14T03:15:03.421Z,102881.45
2019-02-14T03:20:09.064Z,102887.95
2019-02-14T03:25:15.344Z,102890.14
2019-02-14T03:30:19.364Z,102892.20
2019-02-14T03:35:23.363Z,102887.66
2019-02-14T03:40:27.389Z,102883.96
2019-02-14T03:45:31.430Z,102868.80
2019-02-14T03:50:35.818Z,102875.74
2019-02-14T03:55:39.870Z,102880.17
2019-02-14T04:00:43.859Z,102886.36
2019-02-14T04:05:47.861Z,102906.53
2019-02-14T04:10:51.874Z,102893.52
2019-02-14T04:15:55.932Z,102898.27
2019-02-14T04:20:59.940Z,102912.22
2019-02-14T04:26:03.951Z,102908.98
2019-02-14T04:31:08.001Z,102911.93
2019-02-14T04:36:12.025Z,102908.91
2019-02-14T04:41:16.040Z,102909.41
2019-02-14T04:46:20.047Z,102905.89
2019-02-14T04:51:24.064Z,102914.45
2019-02-14T04:56:28.231Z,102919.41
2019-02-14T05:01:32.338Z,102907.80
2019-02-14T05:06:44.059Z,102912.47
2019-02-14T05:11:42.094Z,102924.66
2019-02-14T05:16:46.125Z,102938.87
2019-02-14T05:21:50.137Z,102943.01
2019-02-14T05:26:54.162Z,102949.30
2019-02-14T05:31:58.192Z,102936.13
2019-02-14T05:37:02.239Z,102930.02
2019-02-14T05:42:06.248Z,102942.22
2019-02-14T05:47:10.268Z,102930.91
2019-02-14T05:52:14.286Z,102934.16
2019-02-14T05:57:28.605Z,102933.80
2019-02-14T06:02:32.602Z,102920.51
2019-02-14T06:07:36.634Z,102904.52
2019-02-14T06:12:40.668Z,102923.90
2019-02-14T06:17:44.701Z,102929.84
2019-02-14T06:22:48.709Z,102932.14
2019-02-14T06:27:52.731Z,102948.40
2019-02-14T06:32:56.763Z,102966.53
2019-02-14T06:38:00.842Z,102971.72
2019-02-14T06:43:04.867Z,102976.00
2019-02-14T06:48:08.947Z,102966.75
2019-02-14T06:53:12.961Z,102960.02
2019-02-14T06:58:16.979Z,102968.55
2019-02-14T07:03:21.093Z,102978.91
2019-02-14T07:08:25.106Z,102988.27
2019-02-14T07:13:29.197Z,103003.91
2019-02-14T07:18:33.255Z,103010.64
2019-02-14T07:23:38.076Z,103008.95
2019-02-14T07:28:42.129Z,103022.63
2019-02-14T07:33:46.253Z,103017.98
2019-02-14T07:38:50.372Z,103019.72
2019-02-14T07:43:54.432Z,103011.67
2019-02-14T07:48:58.709Z,103001.79
2019-02-14T07:54:02.824Z,103016.83
2019-02-14T07:59:06.864Z,103006.03
2019-02-14T08:04:10.915Z,103000.88
2019-02-14T08:09:14.986Z,103013.76
2019-02-14T08:14:19.111Z,103009.95
2019-02-14T08:19:23.147Z,103004.11
2019-02-14T08:24:27.179Z,102996.41
2019-02-14T08:29:31.262Z,102999.91
2019-02-14T08:34:35.312Z,102984.78
2019-02-14T08:39:39.351Z,102986.88
2019-02-14T08:44:43.359Z,102984.43
2019-02-14T08:49:47.500Z,102986.73
2019-02-14T08:54:51.514Z,102985.52
2019-02-14T08:59:55.523Z,102977.73
2019-02-14T09:04:59.539Z,102982.99
2019-02-14T09:10:03.579Z,102979.36
2019-02-14T09:15:08.413Z,102989.00
2019-02-14T09:20:13.267Z,102993.55
2019-02-14T09:25:17.282Z,102993.32
2019-02-14T09:30:21.303Z,102994.23
2019-02-14T09:35:27.143Z,103009.20
2019-02-14T09:40:31.070Z,103008.74
2019-02-14T09:45:35.085Z,103011.33
2019-02-14T09:50:40.183Z,103022.31
2019-02-14T09:55:44.236Z,103040.06
2019-02-14T10:00:48.247Z,103029.48
2019-02-14T10:05:52.272Z,102996.64
2019-02-14T10:10:56.315Z,103004.39
2019-02-14T10:16:00.328Z,102987.36
2019-02-14T10:21:04.362Z,102981.15
2019-02-14T10:26:08.393Z,102985.38
2019-02-14T10:31:12.416Z,102991.06
2019-02-14T10:36:16.467Z,102994.41
2019-02-14T10:41:20.506Z,102991.04
2019-02-14T10:46:24.482Z,102995.59
2019-02-14T10:51:28.494Z,102989.55
2019-02-14T10:56:32.512Z,102979.65
2019-02-14T11:01:36.524Z,102973.88
2019-02-14T11:06:40.554Z,102977.29
2019-02-14T11:11:44.661Z,102954.50
2019-02-14T11:16:48.649Z,102964.84
2019-02-14T11:21:52.662Z,102964.59
2019-02-14T11:26:56.707Z,102966.20
2019-02-14T11:32:00.821Z,102960.88
2019-02-14T11:37:04.832Z,102967.02
2019-02-14T11:42:08.879Z,102961.41
2019-02-14T11:47:12.895Z,102956.75
2019-02-14T11:52:16.918Z,102949.91
2019-02-14T11:57:20.942Z,102950.98
2019-02-14T12:02:24.963Z,102950.35
2019-02-14T12:07:28.990Z,102958.98
2019-02-14T12:12:33.044Z,102939.84
2019-02-14T12:17:37.060Z,102943.71
2019-02-14T12:22:46.833Z,102940.55
2019-02-14T12:27:46.810Z,102926.80
2019-02-14T12:32:50.842Z,102933.00
2019-02-14T12:37:54.975Z,102935.08
2019-02-14T12:42:58.997Z,102918.53
2019-02-14T12:48:03.028Z,102926.58
2019-02-14T12:53:07.060Z,102921.37
2019-02-14T12:58:11.098Z,102918.24
2019-02-14T13:03:15.468Z,102912.69
2019-02-14T13:08:19.533Z,102922.19
2019-02-14T13:13:23.596Z,102913.60
2019-02-14T13:18:27.645Z,102911.73
2019-02-14T13:23:31.664Z,102902.23
2019-02-14T13:28:35.681Z,102904.98
2019-02-14T13:33:39.706Z,102914.14
2019-02-14T13:38:43.783Z,102906.27
2019-02-14T13:43:47.816Z,102899.62
2019-02-14T13:48:51.844Z,102895.59
2019-02-14T13:53:55.871Z,102896.12
2019-02-14T13:58:59.980Z,102893.12
2019-02-14T14:04:04.014Z,102893.06
2019-02-14T14:09:10.024Z,102888.72
2019-02-14T14:14:14.067Z,102886.73
2019-02-14T14:19:18.105Z,102879.55
2019-02-14T14:24:23.015Z,102877.23
2019-02-14T14:29:27.507Z,102874.13
2019-02-14T14:34:31.744Z,102870.41
2019-02-14T14:39:35.760Z,102878.45
2019-02-14T14:44:43.438Z,102869.12
2019-02-14T14:49:47.452Z,102869.81
2019-02-14T14:54:51.511Z,102865.62
2019-02-14T14:59:55.899Z,102862.77
2019-02-14T15:05:00.435Z,102857.48
2019-02-14T15:10:04.797Z,102859.45
2019-02-14T15:15:09.008Z,102849.77
2019-02-14T15:20:13.556Z,102838.05
2019-02-14T15:25:17.598Z,102830.08
2019-02-14T15:30:21.662Z,102825.03
2019-02-14T15:35:25.720Z,102821.36
2019-02-14T15:40:29.750Z,102828.19
2019-02-14T15:45:33.787Z,102832.54
2019-02-14T15:50:37.847Z,102835.56
2019-02-14T15:55:43.805Z,102838.25
2019-02-14T16:00:50.009Z,102838.42
2019-02-14T16:05:53.690Z,102845.23
2019-02-14T16:10:57.943Z,102839.05
2019-02-14T16:16:01.956Z,102826.87
2019-02-14T16:21:07.822Z,102828.00
2019-02-14T16:26:13.079Z,102836.53
2019-02-14T16:31:17.503Z,102838.34
2019-02-14T16:36:22.839Z,102839.98
2019-02-14T16:41:27.042Z,102834.13
2019-02-14T16:46:31.075Z,102838.25
2019-02-14T16:51:35.139Z,102835.75
2019-02-14T16:56:39.144Z,102836.77
2019-02-14T17:01:43.165Z,102847.61
2019-02-14T17:06:47.204Z,102846.39
2019-02-14T17:11:51.264Z,102842.38
2019-02-14T17:16:55.303Z,102847.84
2019-02-14T17:21:59.334Z,102853.47
2019-02-14T17:27:03.524Z,102865.46
2019-02-14T17:32:07.552Z,102865.42
2019-02-14T17:37:11.697Z,102875.25
2019-02-14T17:42:15.712Z,102877.37
2019-02-14T17:47:19.737Z,102855.78
2019-02-14T17:52:23.775Z,102879.34
2019-02-14T17:57:27.773Z,102888.83
2019-02-14T18:02:31.800Z,102889.27
2019-02-14T18:07:35.853Z,102893.66
2019-02-14T18:12:39.899Z,102890.99
2019-02-14T18:17:43.949Z,102881.77
2019-02-14T18:22:47.958Z,102873.41
2019-02-14T18:27:52.071Z,102874.58
2019-02-14T18:32:56.104Z,102867.67
2019-02-14T18:38:00.147Z,102877.36
2019-02-14T18:43:04.211Z,102879.16
2019-02-14T18:48:08.229Z,102879.62
2019-02-14T18:53:12.330Z,102877.31
2019-02-14T18:58:25.827Z,102874.64
2019-02-14T19:03:22.473Z,102868.61
2019-02-14T19:08:26.518Z,102860.70
2019-02-14T19:13:30.562Z,102856.14
2019-02-14T19:18:34.612Z,102858.55
2019-02-14T19:23:38.653Z,102854.08
2019-02-14T19:28:42.718Z,102849.06
2019-02-14T19:33:46.779Z,102850.14
2019-02-14T19:38:50.854Z,102846.23
2019-02-14T19:43:54.933Z,102844.39
2019-02-14T19:48:59.053Z,102846.08
2019-02-14T19:54:03.214Z,102838.13
2019-02-14T19:59:07.392Z,102830.39
2019-02-14T20:04:11.490Z,102833.78
2019-02-14T20:09:15.740Z,102833.98
2019-02-14T20:14:20.617Z,102823.63
2019-02-14T20:19:24.714Z,102828.63
2019-02-14T20:24:28.951Z,102813.10
2019-02-14T20:29:33.046Z,102821.39
2019-02-14T20:34:37.163Z,102827.02
2019-02-14T20:39:41.725Z,102825.78
2019-02-14T20:44:45.781Z,102819.33
2019-02-14T20:49:49.882Z,102819.28
2019-02-14T20:54:53.998Z,102828.12
2019-02-14T20:59:58.081Z,102832.39
2019-02-14T21:05:02.143Z,102835.12
2019-02-14T21:10:06.208Z,102836.22
2019-02-14T21:15:10.271Z,102838.17
2019-02-14T21:20:14.364Z,102832.78
2019-02-14T21:25:32.693Z,102837.87
2019-02-14T21:30:36.707Z,102837.87
2019-02-14T21:35:40.750Z,102829.64
2019-02-14T21:40:44.789Z,102829.29
2019-02-14T21:45:48.818Z,102825.38
2019-02-14T21:50:53.853Z,102829.81
2019-02-14T21:55:57.866Z,102825.47
2019-02-14T22:01:01.948Z,102828.71
2019-02-14T22:06:05.968Z,102836.52
2019-02-14T22:11:10.032Z,102841.33
2019-02-14T22:16:14.051Z,102849.03
2019-02-14T22:21:18.060Z,102842.09
2019-02-14T22:26:22.108Z,102843.39
2019-02-14T22:31:26.118Z,102840.13
2019-02-14T22:36:30.144Z,102843.36
2019-02-14T22:41:34.175Z,102846.70
2019-02-14T22:46:38.210Z,102844.62
2019-02-14T22:51:42.238Z,102856.98
2019-02-14T22:56:46.247Z,102856.77
2019-02-14T23:01:50.261Z,102860.58
2019-02-14T23:06:54.290Z,102867.02
2019-02-14T23:11:58.305Z,102869.53
2019-02-14T23:17:02.332Z,102869.45
2019-02-14T23:22:06.404Z,102879.48
2019-02-14T23:27:10.438Z,102883.41
2019-02-14T23:32:14.448Z,102872.27
2019-02-14T23:37:18.499Z,102870.67
2019-02-14T23:42:22.524Z,102866.04
2019-02-14T23:47:26.542Z,102864.99
2019-02-14T23:52:30.567Z,102870.19
2019-02-14T23:57:34.586Z,102867.45
